Time;durP1;ratioP1;P1;durP2;ratioP2;P2;SDS_P1;SDS_P2;PMS_P1;PMS_P2;Temp;Humidity;BMP_temperature;BMP_pressure;BME280_temperature;BME280_humidity;BME280_pressure;Samples;Min_cycle;Max_cycle;Signal;HPM_P1;HPM_P2
2021/07/10 00:01:46;;;;;;;9.98;7.25;;;16.80;99.90;;;;;;4954700;29;20402;-94
2021/07/10 00:04:12;;;;;;;10.10;7.20;;;16.80;99.90;;;;;;4954688;29;20063;-94
2021/07/10 00:06:37;;;;;;;11.00;7.13;;;16.70;99.90;;;;;;4955331;29;20094;-94
2021/07/10 00:09:03;;;;;;;9.30;6.43;;;16.70;99.90;;;;;;4955101;29;20032;-95
2021/07/10 00:11:29;;;;;;;8.70;6.50;;;16.70;99.90;;;;;;4954714;29;20110;-95
2021/07/10 00:13:55;;;;;;;9.23;6.82;;;16.70;99.90;;;;;;4954935;29;20065;-95
2021/07/10 00:16:20;;;;;;;9.23;7.15;;;16.70;99.90;;;;;;4956392;28;20130;-96
2021/07/10 00:18:46;;;;;;;9.45;6.72;;;16.70;99.90;;;;;;4968484;29;20503;-95
2021/07/10 00:21:12;;;;;;;9.95;7.20;;;16.60;99.90;;;;;;4964745;28;20058;-94
2021/07/10 00:23:37;;;;;;;11.80;7.20;;;16.60;99.90;;;;;;4976529;28;20055;-96
2021/07/10 00:26:03;;;;;;;12.38;6.63;;;16.50;99.90;;;;;;4976948;29;20019;-95
2021/07/10 00:28:29;;;;;;;10.40;7.53;;;16.50;99.90;;;;;;4966409;29;20041;-94
2021/07/10 00:30:55;;;;;;;9.68;7.50;;;16.40;99.90;;;;;;4968058;29;20039;-95
2021/07/10 00:33:20;;;;;;;8.63;6.80;;;16.40;99.90;;;;;;4965328;29;20501;-95
2021/07/10 00:35:47;;;;;;;8.45;7.22;;;16.30;99.90;;;;;;4964488;29;20027;-95
2021/07/10 00:38:13;;;;;;;10.70;8.00;;;16.30;99.90;;;;;;4962780;29;20027;-95
2021/07/10 00:40:39;;;;;;;13.05;8.82;;;16.20;99.90;;;;;;4960650;29;20508;-95
2021/07/10 00:43:04;;;;;;;11.77;7.10;;;16.20;99.90;;;;;;4959869;29;20068;-95
2021/07/10 00:45:30;;;;;;;11.60;8.43;;;16.20;99.90;;;;;;4965903;29;20035;-94
2021/07/10 00:47:56;;;;;;;13.02;8.38;;;16.20;99.90;;;;;;4959728;29;20074;-95
2021/07/10 00:50:24;;;;;;;10.55;7.93;;;16.20;99.90;;;;;;4972024;29;20035;-95
2021/07/10 00:52:51;;;;;;;11.30;8.18;;;16.20;99.90;;;;;;4962988;29;20205;-94
2021/07/10 00:55:17;;;;;;;11.10;8.25;;;16.20;99.90;;;;;;4977693;29;20091;-95
2021/07/10 00:57:44;;;;;;;10.45;7.60;;;16.20;99.90;;;;;;4977450;29;20027;-94
2021/07/10 01:00:16;;;;;;;11.13;8.15;;;16.20;99.90;;;;;;4977789;29;20054;-94
2021/07/10 01:02:49;;;;;;;11.63;7.70;;;16.20;99.90;;;;;;4980348;28;20047;-94
2021/07/10 01:05:29;;;;;;;12.73;8.40;;;16.20;99.90;;;;;;4972689;29;20508;-96
2021/07/10 01:07:56;;;;;;;11.57;8.23;;;16.20;99.90;;;;;;4958484;29;20031;-96
2021/07/10 01:10:22;;;;;;;11.88;8.07;;;16.10;99.90;;;;;;4958777;29;20267;-96
2021/07/10 01:12:50;;;;;;;10.93;8.20;;;16.10;99.90;;;;;;4959017;29;20023;-95
2021/07/10 01:15:18;;;;;;;10.48;7.97;;;16.10;99.90;;;;;;4958778;29;20024;-96
2021/07/10 01:17:46;;;;;;;10.73;7.82;;;16.10;99.90;;;;;;4958365;29;20027;-96
2021/07/10 01:20:15;;;;;;;12.38;8.32;;;16.10;99.90;;;;;;4958585;29;20072;-96
2021/07/10 01:22:41;;;;;;;10.63;8.00;;;16.10;99.90;;;;;;4959121;29;20030;-95
2021/07/10 01:25:11;;;;;;;12.32;8.55;;;16.10;99.90;;;;;;4965152;29;20016;-94
2021/07/10 01:27:37;;;;;;;14.75;8.32;;;16.00;99.90;;;;;;4967081;28;20481;-94
2021/07/10 01:30:07;;;;;;;12.73;9.07;;;16.00;99.90;;;;;;4957280;29;20489;-94
2021/07/10 01:32:33;;;;;;;12.27;8.60;;;15.90;99.90;;;;;;4957621;29;20114;-95
2021/07/10 01:34:59;;;;;;;13.15;8.23;;;15.90;99.90;;;;;;4957418;29;20069;-95
2021/07/10 01:37:25;;;;;;;12.73;8.40;;;15.80;99.90;;;;;;4957671;29;20027;-94
2021/07/10 01:39:50;;;;;;;11.07;8.82;;;15.80;99.90;;;;;;4957494;29;20504;-94
2021/07/10 01:42:16;;;;;;;13.48;9.27;;;15.70;99.90;;;;;;4961061;29;20079;-95
2021/07/10 01:44:42;;;;;;;13.13;9.32;;;15.70;99.90;;;;;;4960718;29;20035;-94
2021/07/10 01:47:08;;;;;;;14.75;9.48;;;15.70;99.90;;;;;;4961423;29;20024;-95
2021/07/10 01:49:34;;;;;;;12.77;9.20;;;15.70;99.90;;;;;;4964930;29;20396;-93
2021/07/10 01:52:00;;;;;;;13.80;8.90;;;15.70;99.90;;;;;;4963506;29;20030;-93
2021/07/10 01:54:26;;;;;;;14.70;9.25;;;15.70;99.90;;;;;;4958175;29;20033;-95
2021/07/10 01:56:51;;;;;;;19.17;9.95;;;15.60;99.90;;;;;;4957454;29;20046;-94
2021/07/10 01:59:18;;;;;;;13.98;9.43;;;15.60;99.90;;;;;;4957547;29;20064;-95
2021/07/10 02:01:51;;;;;;;17.08;9.90;;;15.60;99.90;;;;;;4958188;29;20113;-93
2021/07/10 02:04:19;;;;;;;15.70;10.30;;;15.50;99.90;;;;;;4957182;29;20024;-95
2021/07/10 02:06:46;;;;;;;14.02;9.80;;;15.60;99.90;;;;;;4956980;29;20046;-95
2021/07/10 02:09:13;;;;;;;16.13;9.27;;;15.60;99.90;;;;;;4957031;29;20031;-95
2021/07/10 02:11:47;;;;;;;14.25;9.63;;;15.60;99.90;;;;;;4956941;29;20043;-93
2021/07/10 02:14:17;;;;;;;14.45;9.95;;;15.60;99.90;;;;;;4956544;29;20027;-94
2021/07/10 02:16:44;;;;;;;;;;;15.50;99.90;;;;;;4956716;29;20027;-94
2021/07/10 02:19:09;;;;;;;12.93;9.57;;;15.50;99.90;;;;;;4956512;29;20011;-95
2021/07/10 02:21:36;;;;;;;18.63;10.63;;;15.40;99.90;;;;;;4956954;29;20080;-94
2021/07/10 02:24:03;;;;;;;13.63;10.27;;;15.40;99.90;;;;;;4956687;29;20027;-94
2021/07/10 02:26:29;;;;;;;13.98;10.48;;;15.30;99.90;;;;;;4956818;29;20102;-93
2021/07/10 02:28:55;;;;;;;13.98;9.80;;;15.40;99.90;;;;;;4956207;29;20059;-94
2021/07/10 02:31:21;;;;;;;13.68;9.50;;;15.40;99.90;;;;;;4955567;29;20464;-94
2021/07/10 02:33:46;;;;;;;14.75;10.27;;;15.40;99.90;;;;;;4955642;29;20031;-93
2021/07/10 02:36:12;;;;;;;17.30;11.10;;;15.40;99.90;;;;;;4955800;29;20031;-94
2021/07/10 02:38:38;;;;;;;15.40;10.13;;;15.50;99.90;;;;;;4955733;28;20047;-94
2021/07/10 02:41:03;;;;;;;15.93;11.75;;;15.50;99.90;;;;;;4955015;29;20035;-93
2021/07/10 02:43:29;;;;;;;15.38;11.00;;;15.50;99.90;;;;;;4955503;29;20156;-93
2021/07/10 02:45:55;;;;;;;15.38;10.63;;;15.50;99.90;;;;;;4955526;29;20031;-94
2021/07/10 02:48:20;;;;;;;18.45;11.52;;;15.50;99.90;;;;;;4955680;29;20031;-94
2021/07/10 02:50:46;;;;;;;17.50;11.27;;;15.50;99.90;;;;;;4955792;29;20070;-95
2021/07/10 02:53:12;;;;;;;17.15;11.18;;;15.50;99.90;;;;;;4956288;29;20554;-95
2021/07/10 02:55:38;;;;;;;18.83;12.10;;;15.50;99.90;;;;;;4955967;29;20030;-95
2021/07/10 02:58:04;;;;;;;20.23;11.93;;;15.50;99.90;;;;;;4956248;29;20393;-96
2021/07/10 03:00:30;;;;;;;17.33;12.07;;;15.50;99.90;;;;;;4956118;29;20096;-95
2021/07/10 03:02:57;;;;;;;20.17;12.52;;;15.40;99.90;;;;;;4956111;29;20031;-95
2021/07/10 03:05:23;;;;;;;21.45;13.30;;;15.40;99.90;;;;;;4955332;29;20106;-95
2021/07/10 03:07:49;;;;;;;20.23;12.90;;;15.40;99.90;;;;;;4955244;29;20055;-94
2021/07/10 03:10:18;;;;;;;20.30;12.82;;;15.50;99.90;;;;;;4954834;29;20031;-95
2021/07/10 03:12:45;;;;;;;19.35;12.02;;;15.50;99.90;;;;;;4955560;29;20118;-96
2021/07/10 03:15:15;;;;;;;19.05;12.80;;;15.50;99.90;;;;;;4955441;29;20031;-95
2021/07/10 03:17:41;;;;;;;20.35;13.90;;;15.40;99.90;;;;;;4955401;29;20106;-95
2021/07/10 03:20:08;;;;;;;24.55;14.15;;;15.40;99.90;;;;;;4957204;29;20073;-93
2021/07/10 03:22:34;;;;;;;23.08;14.13;;;15.50;99.90;;;;;;4957203;29;20106;-94
2021/07/10 03:25:04;;;;;;;24.77;14.60;;;15.50;99.90;;;;;;4956763;29;20065;-94
2021/07/10 03:27:30;;;;;;;25.55;14.30;;;15.50;99.90;;;;;;4956148;29;20028;-94
2021/07/10 03:29:56;;;;;;;23.65;14.93;;;15.40;99.90;;;;;;4955767;29;20127;-93
2021/07/10 03:32:22;;;;;;;22.23;14.32;;;15.40;99.90;;;;;;4955910;29;20027;-93
2021/07/10 03:34:48;;;;;;;24.55;14.23;;;15.50;99.90;;;;;;4955616;29;20392;-94
2021/07/10 03:37:13;;;;;;;22.60;14.55;;;15.50;99.90;;;;;;4955388;29;20028;-94
2021/07/10 03:39:39;;;;;;;26.77;15.88;;;15.50;99.90;;;;;;4956299;29;20039;-93
2021/07/10 03:42:05;;;;;;;23.83;14.93;;;15.50;99.90;;;;;;4960202;29;20042;-94
2021/07/10 03:44:31;;;;;;;23.73;15.30;;;15.50;99.90;;;;;;4960044;29;20027;-93
2021/07/10 03:46:57;;;;;;;25.65;15.85;;;15.50;99.90;;;;;;4961886;29;20020;-94
2021/07/10 03:49:22;;;;;;;27.75;15.00;;;15.50;99.90;;;;;;4968310;29;20050;-94
2021/07/10 03:51:48;;;;;;;23.98;14.38;;;15.50;99.90;;;;;;4967484;29;20535;-93
2021/07/10 03:54:14;;;;;;;23.20;13.95;;;15.50;99.90;;;;;;4959045;29;20380;-93
2021/07/10 03:56:40;;;;;;;24.08;14.68;;;15.50;99.90;;;;;;4957820;29;20046;-94
2021/07/10 04:19:17;;;;;;;27.35;14.38;;;15.70;99.90;;;;;;5339756;23;20043;-96
2021/07/10 04:40:31;;;;;;;21.15;14.43;;;15.60;99.90;;;;;;5652397;23;20521;-95
2021/07/10 04:42:56;;;;;;;23.33;13.30;;;15.60;99.90;;;;;;4959516;29;20027;-94
2021/07/10 04:45:22;;;;;;;24.48;14.15;;;15.60;99.90;;;;;;4957652;29;20497;-95
2021/07/10 04:47:48;;;;;;;22.42;13.77;;;15.60;99.90;;;;;;4957536;29;20031;-95
2021/07/10 04:50:15;;;;;;;22.40;14.10;;;15.60;99.90;;;;;;4955529;28;20540;-94
2021/07/10 04:52:42;;;;;;;25.08;14.70;;;15.60;99.90;;;;;;4956752;29;20055;-94
2021/07/10 04:55:09;;;;;;;23.55;14.88;;;15.60;99.90;;;;;;4958952;29;20508;-95
2021/07/10 04:57:35;;;;;;;25.27;15.70;;;15.60;99.90;;;;;;4957978;29;20440;-95
2021/07/10 05:00:02;;;;;;;22.15;14.55;;;15.60;99.90;;;;;;4956606;29;20039;-95
2021/07/10 05:02:27;;;;;;;23.30;14.25;;;15.60;99.90;;;;;;4957180;28;20095;-96
2021/07/10 05:04:53;;;;;;;25.10;15.43;;;15.60;99.90;;;;;;4962315;29;20101;-93
2021/07/10 05:07:19;;;;;;;27.23;14.43;;;15.60;99.90;;;;;;4960589;29;20110;-95
2021/07/10 05:09:46;;;;;;;21.80;14.30;;;15.60;99.90;;;;;;4961365;29;20027;-95
2021/07/10 05:12:15;;;;;;;20.67;13.43;;;15.60;99.90;;;;;;4955572;29;20032;-94
2021/07/10 05:14:41;;;;;;;25.23;14.60;;;15.60;99.90;;;;;;4975434;28;20042;-94
2021/07/10 05:17:57;;;;;;;25.40;14.50;;;15.60;99.90;;;;;;4973471;28;20011;-96
2021/07/10 05:20:22;;;;;;;22.52;13.90;;;15.60;99.90;;;;;;4971178;28;20035;-94
2021/07/10 05:22:48;;;;;;;25.10;15.18;;;15.70;99.90;;;;;;4970098;29;20058;-96
2021/07/10 06:05:23;;;;;;;26.75;15.15;;;16.10;99.90;;;;;;5961709;23;20022;-95
2021/07/10 06:07:49;;;;;;;29.30;16.80;;;16.10;99.90;;;;;;4975441;28;20118;-95
2021/07/10 06:10:15;;;;;;;30.10;16.70;;;16.10;99.90;;;;;;4976506;28;20106;-95
2021/07/10 06:12:42;;;;;;;29.65;16.52;;;16.20;99.90;;;;;;4975414;28;20044;-95
2021/07/10 06:15:09;;;;;;;29.50;17.42;;;16.20;99.90;;;;;;4974831;28;20070;-94
2021/07/10 06:17:35;;;;;;;28.25;16.65;;;16.20;99.90;;;;;;4973514;28;20481;-95
2021/07/10 06:20:06;;;;;;;25.38;16.50;;;16.20;99.90;;;;;;4974761;28;20031;-96
2021/07/10 06:22:32;;;;;;;29.65;17.60;;;16.30;99.90;;;;;;4974161;28;20030;-96
2021/07/10 06:24:57;;;;;;;29.98;17.35;;;16.30;99.90;;;;;;4974290;28;20034;-94
2021/07/10 06:27:23;;;;;;;34.58;18.95;;;16.30;99.90;;;;;;4974736;28;20475;-95
2021/07/10 06:29:49;;;;;;;40.03;19.58;;;16.30;99.90;;;;;;4974555;28;20147;-95
2021/07/10 06:32:15;;;;;;;34.15;18.73;;;16.30;99.90;;;;;;4979772;28;20087;-95
2021/07/10 06:34:40;;;;;;;32.45;20.38;;;16.40;99.90;;;;;;4978640;28;20027;-95
2021/07/10 06:37:06;;;;;;;33.45;19.60;;;16.40;99.90;;;;;;4979161;28;20087;-96
2021/07/10 06:39:33;;;;;;;30.65;18.80;;;16.40;99.90;;;;;;4980861;28;20031;-95
2021/07/10 06:41:59;;;;;;;32.22;18.77;;;16.40;99.90;;;;;;4979372;28;20023;-96
2021/07/10 06:44:24;;;;;;;34.53;19.60;;;16.40;99.90;;;;;;4979176;28;20026;-95
2021/07/10 06:46:50;;;;;;;30.75;18.58;;;16.50;99.90;;;;;;4977717;28;20087;-96
2021/07/10 06:49:17;;;;;;;31.05;19.38;;;16.50;99.90;;;;;;4984297;28;20050;-96
2021/07/10 06:51:43;;;;;;;31.27;18.52;;;16.50;99.90;;;;;;4984167;28;20384;-95
2021/07/10 06:54:09;;;;;;;30.48;17.65;;;16.60;99.90;;;;;;4979612;28;20027;-96
2021/07/10 06:56:35;;;;;;;35.70;19.38;;;16.60;99.90;;;;;;4977879;28;20090;-94
2021/07/10 06:59:03;;;;;;;34.60;19.42;;;16.60;99.90;;;;;;4978851;28;20042;-96
2021/07/10 07:01:29;;;;;;;31.30;18.52;;;16.70;99.90;;;;;;4977738;28;20027;-94
2021/07/10 07:03:55;;;;;;;32.45;19.67;;;16.70;99.90;;;;;;4978140;28;20110;-95
2021/07/10 07:06:22;;;;;;;30.83;18.60;;;16.70;99.90;;;;;;4978070;28;20687;-95
2021/07/10 07:13:57;;;;;;;35.95;19.67;;;16.80;99.90;;;;;;5006120;28;20060;-94
2021/07/10 07:16:23;;;;;;;34.97;20.40;;;16.80;99.90;;;;;;4995931;28;20039;-95
2021/07/10 07:18:48;;;;;;;33.55;19.60;;;16.90;99.90;;;;;;5012413;28;20038;-93
2021/07/10 07:23:50;;;;;;;33.00;19.25;;;17.00;99.90;;;;;;5296258;23;20043;-96
2021/07/10 07:26:18;;;;;;;35.00;19.98;;;17.10;99.90;;;;;;4973590;28;20042;-95
2021/07/10 07:28:44;;;;;;;36.47;21.17;;;17.30;99.90;;;;;;4962464;29;20071;-95
2021/07/10 07:31:10;;;;;;;32.45;20.13;;;17.30;99.90;;;;;;4958625;29;20031;-94
2021/07/10 07:33:36;;;;;;;36.67;20.20;;;17.50;99.90;;;;;;4969638;29;20042;-96
2021/07/10 07:36:02;;;;;;;32.33;20.17;;;17.50;99.90;;;;;;4966975;29;20031;-96
2021/07/10 07:38:28;;;;;;;33.90;20.10;;;17.60;99.90;;;;;;4960056;29;20027;-94
2021/07/10 07:40:54;;;;;;;37.70;20.98;;;17.60;99.90;;;;;;4957011;29;20035;-95
2021/07/10 07:43:19;;;;;;;36.03;20.98;;;17.60;99.90;;;;;;4956235;29;20039;-95
2021/07/10 07:45:45;;;;;;;38.97;21.65;;;17.70;99.90;;;;;;4955359;29;20139;-95
2021/07/10 07:48:11;;;;;;;35.38;20.35;;;17.80;99.90;;;;;;4955531;29;20046;-95
2021/07/10 07:50:36;;;;;;;34.85;20.95;;;17.90;99.90;;;;;;4955549;29;20392;-95
2021/07/10 07:53:02;;;;;;;34.17;20.35;;;18.00;99.90;;;;;;4955180;29;20042;-96
2021/07/10 07:55:28;;;;;;;30.75;18.77;;;18.20;99.90;;;;;;4955525;29;20101;-95
2021/07/10 07:57:54;;;;;;;32.53;20.23;;;18.30;99.90;;;;;;4955572;29;20035;-93
2021/07/10 08:00:22;;;;;;;32.35;19.85;;;18.50;99.90;;;;;;4955846;29;20093;-96
2021/07/10 08:02:51;;;;;;;33.30;19.73;;;18.50;99.90;;;;;;4960752;29;20007;-94
2021/07/10 08:05:18;;;;;;;28.00;18.95;;;18.50;99.90;;;;;;4957959;29;20035;-95
2021/07/10 08:07:44;;;;;;;34.70;19.13;;;18.50;99.90;;;;;;4960790;29;20035;-94
2021/07/10 08:10:12;;;;;;;26.98;16.42;;;18.50;99.90;;;;;;4958763;29;20154;-95
2021/07/10 08:12:39;;;;;;;28.23;18.20;;;18.50;99.90;;;;;;4958085;29;20480;-96
2021/07/10 08:15:07;;;;;;;30.90;17.73;;;18.50;99.90;;;;;;4956818;29;20043;-94
2021/07/10 08:17:33;;;;;;;27.73;15.90;;;18.50;99.90;;;;;;4954965;29;20028;-94
2021/07/10 08:19:59;;;;;;;27.05;16.50;;;18.50;99.90;;;;;;4954635;29;20050;-94
2021/07/10 08:22:25;;;;;;;27.02;17.13;;;18.60;99.90;;;;;;4955223;29;20031;-92
2021/07/10 08:24:51;;;;;;;25.67;17.02;;;18.70;99.90;;;;;;4955483;29;20051;-92
2021/07/10 08:27:17;;;;;;;20.95;15.18;;;18.80;99.90;;;;;;4955654;29;20397;-93
2021/07/10 08:29:42;;;;;;;26.63;16.08;;;18.90;99.90;;;;;;4955789;29;20046;-92
2021/07/10 08:32:09;;;;;;;27.60;18.00;;;19.00;99.90;;;;;;4955174;29;20414;-96
2021/07/10 08:34:34;;;;;;;27.42;17.98;;;19.00;99.90;;;;;;4955416;29;20039;-92
2021/07/10 08:37:02;;;;;;;28.13;18.85;;;19.00;99.90;;;;;;4955227;28;20031;-94
2021/07/10 08:39:28;;;;;;;28.25;18.17;;;19.00;99.90;;;;;;4958010;29;20039;-95
2021/07/10 08:41:54;;;;;;;28.17;17.63;;;19.00;99.90;;;;;;4958369;29;20023;-94
2021/07/10 08:44:20;;;;;;;25.75;16.67;;;19.00;99.90;;;;;;4958278;29;20027;-93
2021/07/10 08:46:47;;;;;;;24.73;16.42;;;19.10;99.90;;;;;;4958136;29;20031;-93
2021/07/10 08:49:16;;;;;;;27.58;18.45;;;19.30;99.90;;;;;;4957312;29;20020;-92
2021/07/10 08:51:47;;;;;;;26.65;18.02;;;19.50;99.90;;;;;;4946948;29;20087;-95
2021/07/10 08:54:13;;;;;;;;;;;19.70;99.90;;;;;;4956699;29;20035;-93
2021/07/10 08:56:39;;;;;;;24.38;15.73;;;19.70;99.90;;;;;;4955969;28;20363;-92
2021/07/10 08:59:11;;;;;;;24.23;16.15;;;19.80;99.90;;;;;;4956031;29;20086;-94
2021/07/10 09:01:38;;;;;;;21.17;15.15;;;20.00;99.90;;;;;;4955862;29;20023;-93
2021/07/10 09:04:05;;;;;;;24.17;15.05;;;20.00;99.90;;;;;;4956076;29;20073;-93
2021/07/10 09:06:31;;;;;;;23.05;15.00;;;20.00;99.90;;;;;;4955922;29;20031;-93
2021/07/10 09:08:57;;;;;;;27.17;16.50;;;20.00;99.90;;;;;;4956247;29;20027;-93
2021/07/10 09:11:24;;;;;;;22.95;14.85;;;20.00;99.90;;;;;;4956729;29;20027;-92
2021/07/10 09:13:55;;;;;;;21.50;14.40;;;20.00;99.90;;;;;;4956390;29;20031;-93
2021/07/10 09:16:25;;;;;;;21.05;14.90;;;19.90;99.90;;;;;;4956697;29;20053;-92
2021/07/10 09:18:54;;;;;;;22.15;15.63;;;19.90;99.90;;;;;;4959470;29;20027;-91
2021/07/10 09:21:39;;;;;;;22.38;14.25;;;19.90;99.90;;;;;;4957301;29;20023;-91
2021/07/10 09:24:15;;;;;;;22.42;14.57;;;19.80;99.90;;;;;;4955913;29;20606;-92
2021/07/10 09:26:46;;;;;;;24.45;15.85;;;19.80;99.90;;;;;;4955490;29;20035;-94
2021/07/10 09:29:21;;;;;;;19.35;14.15;;;19.80;99.90;;;;;;4955779;29;20019;-92
2021/07/10 09:31:58;;;;;;;22.02;14.65;;;19.90;99.90;;;;;;4953900;29;20081;-92
2021/07/10 09:34:42;;;;;;;26.58;16.55;;;19.90;99.90;;;;;;4952853;29;20031;-92
2021/07/10 09:37:14;;;;;;;23.15;15.00;;;19.90;99.90;;;;;;4954485;29;20062;-92
2021/07/10 09:39:54;;;;;;;25.13;15.45;;;20.00;99.90;;;;;;4956048;29;20039;-92
2021/07/10 09:42:31;;;;;;;25.58;14.77;;;20.00;99.90;;;;;;4955748;29;20031;-87
2021/07/10 09:44:57;;;;;;;21.65;14.45;;;19.90;99.90;;;;;;4954619;29;20123;-88
2021/07/10 09:47:31;;;;;;;18.15;12.73;;;20.00;99.90;;;;;;4945970;29;20107;-87
2021/07/10 09:49:59;;;;;;;22.20;15.07;;;20.00;99.90;;;;;;4951688;28;20039;-90
2021/07/10 09:52:29;;;;;;;18.48;12.27;;;20.00;99.90;;;;;;4953263;29;20055;-89
2021/07/10 09:55:00;;;;;;;;;;;20.00;99.90;;;;;;4952835;29;20035;-89
2021/07/10 09:57:28;;;;;;;17.17;12.43;;;20.10;99.90;;;;;;4952839;29;19914;-88
2021/07/10 09:59:57;;;;;;;17.85;12.57;;;20.10;99.90;;;;;;4952099;29;20072;-89
2021/07/10 10:02:26;;;;;;;16.88;11.68;;;20.20;99.90;;;;;;4953889;28;20015;-89
2021/07/10 10:04:58;;;;;;;18.88;11.23;;;20.30;99.90;;;;;;4952802;29;20027;-89
2021/07/10 10:07:24;;;;;;;15.32;10.75;;;20.40;99.90;;;;;;4945177;29;20055;-88
2021/07/10 10:09:56;;;;;;;16.75;10.80;;;20.50;99.90;;;;;;4952806;29;20069;-88
2021/07/10 10:12:22;;;;;;;14.55;10.07;;;20.70;99.90;;;;;;4952260;29;20397;-89
2021/07/10 10:14:51;;;;;;;16.40;11.73;;;20.80;99.90;;;;;;4953109;29;20035;-89
2021/07/10 10:17:19;;;;;;;13.23;9.18;;;21.00;99.90;;;;;;4945996;29;20114;-89
2021/07/10 10:19:46;;;;;;;16.20;11.32;;;21.10;99.90;;;;;;4953945;29;20063;-90
2021/07/10 10:22:14;;;;;;;18.67;11.48;;;21.10;99.90;;;;;;4953869;29;20499;-88
2021/07/10 10:24:43;;;;;;;11.25;7.97;;;21.20;99.70;;;;;;4953728;29;20047;-89
2021/07/10 10:27:09;;;;;;;15.02;8.73;;;21.20;99.50;;;;;;4953225;29;20114;-89
2021/07/10 10:29:35;;;;;;;14.10;9.23;;;21.30;99.60;;;;;;4954931;28;20114;-88
2021/07/10 10:32:02;;;;;;;10.13;7.95;;;21.40;99.40;;;;;;4955278;29;20047;-90
2021/07/10 10:34:28;;;;;;;19.67;12.15;;;21.50;99.10;;;;;;4953499;29;20488;-88
2021/07/10 10:36:56;;;;;;;18.48;11.95;;;21.50;98.80;;;;;;4954993;29;20035;-88
2021/07/10 10:39:25;;;;;;;15.50;10.32;;;21.50;98.70;;;;;;4953055;29;20066;-88
2021/07/10 10:41:57;;;;;;;16.92;11.57;;;21.40;98.60;;;;;;4948637;29;20027;-88
2021/07/10 10:44:33;;;;;;;19.05;11.82;;;21.30;98.80;;;;;;4954349;29;20102;-87
2021/07/10 10:46:59;;;;;;;16.55;10.93;;;21.30;99.00;;;;;;4954152;29;20428;-88
2021/07/10 10:49:41;;;;;;;18.70;12.18;;;21.30;98.90;;;;;;4953420;29;20381;-88
2021/07/10 10:52:34;;;;;;;20.80;13.77;;;21.30;98.90;;;;;;4954117;28;20023;-88
2021/07/10 10:55:14;;;;;;;20.58;12.43;;;21.20;99.00;;;;;;4950748;29;20023;-89
2021/07/10 10:57:50;;;;;;;19.25;11.52;;;21.40;99.10;;;;;;4953544;29;20039;-88
2021/07/10 11:00:24;;;;;;;15.57;10.32;;;21.60;98.80;;;;;;4950388;28;20524;-89
2021/07/10 11:03:19;;;;;;;12.10;8.65;;;21.90;98.50;;;;;;4952848;29;20440;-88
2021/07/10 11:05:47;;;;;;;11.40;6.95;;;22.30;97.90;;;;;;4952580;28;20544;-89
2021/07/10 11:08:19;;;;;;;15.15;8.35;;;22.40;97.10;;;;;;4951561;29;20505;-89
2021/07/10 11:10:46;;;;;;;15.98;9.63;;;22.50;96.20;;;;;;4952632;29;20528;-90
2021/07/10 11:13:28;;;;;;;18.35;12.45;;;22.50;95.70;;;;;;4953626;29;20118;-91
2021/07/10 11:16:11;;;;;;;20.00;13.52;;;22.40;95.10;;;;;;4947535;29;20583;-90
2021/07/10 11:18:58;;;;;;;20.50;13.07;;;22.30;95.30;;;;;;4954757;29;20568;-88
2021/07/10 11:21:37;;;;;;;17.92;11.23;;;22.20;95.50;;;;;;4954045;29;20035;-90
2021/07/10 11:26:56;;;;;;;18.48;10.40;;;22.00;95.90;;;;;;4955856;29;20050;-90
2021/07/10 11:29:24;;;;;;;14.80;8.75;;;21.90;96.10;;;;;;4953821;29;20137;-90
2021/07/10 11:31:51;;;;;;;16.35;9.75;;;22.10;96.20;;;;;;4951752;29;20027;-90
2021/07/10 11:34:19;;;;;;;13.50;9.23;;;22.40;96.10;;;;;;4953598;29;20030;-89
2021/07/10 11:36:47;;;;;;;13.48;7.95;;;22.70;95.40;;;;;;4952965;29;20027;-90
2021/07/10 11:39:25;;;;;;;12.02;7.30;;;23.00;94.60;;;;;;4951656;29;20039;-90
2021/07/10 11:42:19;;;;;;;12.55;7.72;;;23.20;93.20;;;;;;4933258;29;20436;-90
2021/07/10 11:44:51;;;;;;;10.93;7.13;;;23.30;92.30;;;;;;4876587;29;20032;-89
2021/07/10 11:47:53;;;;;;;12.15;7.50;;;23.20;91.60;;;;;;4867050;29;20430;-89
2021/07/10 11:50:22;;;;;;;16.20;8.20;;;23.10;91.20;;;;;;4859485;29;20048;-90
2021/07/10 11:52:59;;;;;;;15.68;8.90;;;23.00;91.20;;;;;;4879222;29;20039;-91
2021/07/10 11:55:27;;;;;;;11.90;6.63;;;23.10;91.10;;;;;;4879326;29;20033;-90
2021/07/10 11:57:53;;;;;;;9.85;6.03;;;23.00;90.80;;;;;;4878527;29;20032;-90
2021/07/10 12:00:21;;;;;;;8.45;5.57;;;23.10;90.30;;;;;;4878052;29;20040;-88
2021/07/10 12:02:46;;;;;;;8.20;5.68;;;23.20;89.60;;;;;;4878230;29;20044;-88
2021/07/10 12:05:12;;;;;;;9.15;6.20;;;23.20;88.40;;;;;;4893794;29;20040;-88
2021/07/10 12:07:58;;;;;;;12.82;6.50;;;23.30;87.30;;;;;;4877938;29;20032;-88
2021/07/10 12:10:36;;;;;;;15.43;7.65;;;23.40;86.60;;;;;;4883121;29;20044;-89
2021/07/10 12:13:19;;;;;;;15.13;7.70;;;23.50;86.50;;;;;;4862661;29;20037;-89
2021/07/10 12:15:56;;;;;;;10.90;7.35;;;23.60;86.90;;;;;;4867807;29;20127;-88
2021/07/10 12:18:24;;;;;;;15.23;9.32;;;23.70;87.20;;;;;;4887956;29;20041;-88
2021/07/10 12:21:05;;;;;;;15.75;9.82;;;23.80;87.30;;;;;;4876830;29;20046;-88
2021/07/10 12:23:41;;;;;;;18.38;10.27;;;24.10;87.60;;;;;;4954266;29;20107;-87
2021/07/10 12:26:08;;;;;;;18.08;10.02;;;24.10;87.00;;;;;;4955795;29;20392;-87
2021/07/10 12:28:34;;;;;;;16.17;9.13;;;24.00;87.00;;;;;;4955599;29;20452;-88
2021/07/10 12:31:02;;;;;;;13.52;8.32;;;23.90;87.40;;;;;;4955859;29;20046;-88
2021/07/10 12:33:33;;;;;;;12.55;8.45;;;23.70;87.00;;;;;;4956077;28;20039;-88
2021/07/10 12:36:00;;;;;;;14.07;8.88;;;23.60;86.80;;;;;;4970469;28;20023;-89
2021/07/10 12:38:26;;;;;;;18.85;9.85;;;23.50;87.00;;;;;;4955908;29;20047;-88
2021/07/10 12:40:51;;;;;;;15.68;8.40;;;23.40;87.40;;;;;;4956232;29;20039;-89
2021/07/10 12:43:24;;;;;;;13.45;8.55;;;23.40;87.80;;;;;;4955558;29;20118;-88
2021/07/10 12:45:59;;;;;;;14.88;8.90;;;23.40;87.10;;;;;;4955948;29;20031;-90
2021/07/10 12:48:25;;;;;;;20.00;9.05;;;23.50;87.50;;;;;;4971674;28;20070;-89
2021/07/10 12:50:51;;;;;;;19.15;9.15;;;23.70;87.80;;;;;;4958596;29;20055;-89
2021/07/10 12:53:17;;;;;;;13.35;8.55;;;23.90;87.30;;;;;;4959167;29;20094;-91
2021/07/10 12:56:00;;;;;;;15.65;8.32;;;24.00;86.00;;;;;;4958691;29;20034;-92
2021/07/10 12:58:26;;;;;;;12.85;7.75;;;23.90;85.60;;;;;;4973839;28;20043;-95
2021/07/10 13:00:52;;;;;;;12.18;7.35;;;23.80;85.30;;;;;;4979586;28;20050;-94
2021/07/10 13:03:24;;;;;;;13.25;7.25;;;23.60;85.00;;;;;;4979949;28;20078;-95
2021/07/10 13:05:52;;;;;;;14.13;8.15;;;23.60;85.70;;;;;;4979989;28;20039;-96
2021/07/10 13:08:24;;;;;;;14.13;7.30;;;23.70;85.90;;;;;;4968096;29;20023;-96
2021/07/10 13:10:59;;;;;;;14.85;8.80;;;23.70;85.20;;;;;;4963769;29;20035;-94
2021/07/10 13:13:29;;;;;;;14.93;9.02;;;23.80;84.90;;;;;;4962089;29;20372;-94
2021/07/10 13:15:56;;;;;;;18.75;9.93;;;23.70;84.70;;;;;;4960620;29;20197;-93
2021/07/10 13:18:24;;;;;;;16.40;9.20;;;23.60;85.10;;;;;;4959180;29;20037;-95
2021/07/10 13:21:00;;;;;;;19.20;9.50;;;23.40;85.60;;;;;;4958374;29;20043;-95
2021/07/10 13:23:39;;;;;;;14.30;8.13;;;23.30;86.20;;;;;;4957196;28;20536;-94
2021/07/10 13:26:20;;;;;;;5.72;4.13;;;23.20;86.30;;;;;;4957451;29;20032;-95
2021/07/10 13:28:49;;;;;;;6.05;3.53;;;23.10;85.90;;;;;;4957880;29;20082;-95
2021/07/10 13:31:28;;;;;;;4.60;2.50;;;23.20;85.10;;;;;;4957843;29;20057;-94
2021/07/10 13:33:58;;;;;;;3.83;2.08;;;23.20;83.40;;;;;;4959003;29;20027;-95
2021/07/10 13:36:33;;;;;;;6.18;2.10;;;23.30;81.60;;;;;;4957708;29;20126;-96
2021/07/10 13:39:12;;;;;;;3.78;2.00;;;23.50;80.50;;;;;;4957427;29;20130;-96
2021/07/10 13:41:54;;;;;;;13.95;9.35;;;23.70;79.40;;;;;;4957537;29;20027;-94
2021/07/10 13:44:22;;;;;;;15.77;9.02;;;23.90;79.20;;;;;;4957294;29;20082;-95
2021/07/10 13:47:01;;;;;;;15.93;9.55;;;23.90;80.50;;;;;;4958000;29;20489;-95
2021/07/10 13:49:35;;;;;;;15.48;9.13;;;23.90;81.70;;;;;;4957159;29;20483;-95
2021/07/10 13:52:03;;;;;;;15.88;8.35;;;23.70;82.40;;;;;;4956866;28;20028;-94
2021/07/10 13:54:31;;;;;;;12.50;8.30;;;23.50;82.90;;;;;;4956747;29;20035;-95
2021/07/10 13:57:18;;;;;;;12.10;7.68;;;23.30;83.60;;;;;;4956925;29;20023;-96
2021/07/10 14:00:10;;;;;;;12.82;7.70;;;23.20;84.70;;;;;;4957892;29;20039;-95
2021/07/10 14:02:38;;;;;;;11.93;7.45;;;23.00;84.40;;;;;;4975488;28;20035;-95
2021/07/10 14:05:19;;;;;;;11.65;6.25;;;22.80;84.80;;;;;;4957043;29;20053;-95
2021/07/10 14:07:51;;;;;;;14.25;7.82;;;22.60;85.90;;;;;;4959608;29;20440;-94
2021/07/10 14:10:22;;;;;;;9.40;6.20;;;22.50;86.50;;;;;;4956173;29;20043;-94
2021/07/10 14:12:48;;;;;;;14.88;7.97;;;22.40;87.00;;;;;;4956228;29;20039;-95